createdAt,value
2019-03-24T00:00:44.347Z,90.00
2019-03-24T00:03:14.653Z,90.00
2019-03-24T00:05:42.964Z,90.10
2019-03-24T00:08:11.598Z,90.10
2019-03-24T00:10:45.303Z,90.10
2019-03-24T00:13:13.487Z,90.40
2019-03-24T00:15:44.576Z,90.60
2019-03-24T00:18:21.323Z,90.80
2019-03-24T00:20:52.877Z,90.90
2019-03-24T00:23:20.924Z,90.80
2019-03-24T00:25:51.137Z,90.70
2019-03-24T00:28:19.580Z,90.70
2019-03-24T00:30:48.006Z,90.60
2019-03-24T00:33:16.005Z,90.80
2019-03-24T00:35:44.420Z,90.80
2019-03-24T00:38:12.495Z,90.80
2019-03-24T00:40:40.503Z,90.90
2019-03-24T00:43:08.940Z,91.00
2019-03-24T00:45:37.828Z,91.30
2019-03-24T00:48:05.817Z,90.90
2019-03-24T00:50:34.203Z,91.00
2019-03-24T00:53:02.520Z,91.00
2019-03-24T00:55:34.026Z,91.00
2019-03-24T00:58:04.615Z,91.00
2019-03-24T01:00:45.253Z,91.20
2019-03-24T01:03:18.104Z,91.30
2019-03-24T01:05:46.773Z,91.30
2019-03-24T01:08:14.910Z,91.30
2019-03-24T01:10:42.945Z,91.30
2019-03-24T01:13:12.444Z,91.50
2019-03-24T01:15:47.687Z,91.40
2019-03-24T01:18:10.295Z,91.40
2019-03-24T01:20:38.260Z,91.30
2019-03-24T01:23:06.243Z,91.40
2019-03-24T01:25:34.605Z,91.40
2019-03-24T01:28:02.631Z,91.40
2019-03-24T01:30:30.586Z,91.40
2019-03-24T01:32:58.640Z,91.40
2019-03-24T01:35:27.399Z,91.30
2019-03-24T01:37:55.428Z,91.50
2019-03-24T01:40:23.420Z,91.60
2019-03-24T01:42:51.446Z,91.70
2019-03-24T01:45:19.376Z,91.70
2019-03-24T01:47:47.418Z,91.70
2019-03-24T01:50:15.394Z,91.70
2019-03-24T01:52:43.392Z,91.80
2019-03-24T01:55:11.769Z,91.80
2019-03-24T01:57:39.780Z,91.80
2019-03-24T02:00:08.039Z,91.90
2019-03-24T02:02:36.079Z,91.80
2019-03-24T02:05:04.151Z,91.80
2019-03-24T02:07:32.140Z,91.80
2019-03-24T02:10:00.418Z,91.90
2019-03-24T02:12:28.572Z,91.90
2019-03-24T02:14:56.576Z,91.80
2019-03-24T02:17:24.980Z,91.80
2019-03-24T02:19:53.520Z,91.90
2019-03-24T02:22:22.123Z,91.90
2019-03-24T02:24:50.828Z,91.90
2019-03-24T02:27:18.933Z,91.90
2019-03-24T02:29:46.989Z,91.70
2019-03-24T02:32:15.103Z,91.70
2019-03-24T02:34:43.282Z,91.60
2019-03-24T02:37:11.284Z,91.60
2019-03-24T02:39:39.321Z,91.60
2019-03-24T02:42:07.341Z,91.70
2019-03-24T02:44:35.399Z,91.80
2019-03-24T02:47:03.411Z,92.10
2019-03-24T02:49:32.189Z,91.80
2019-03-24T02:52:00.216Z,92.00
2019-03-24T02:54:28.656Z,92.00
2019-03-24T02:56:56.666Z,92.20
2019-03-24T02:59:24.787Z,92.30
2019-03-24T03:01:53.157Z,92.40
2019-03-24T03:04:21.654Z,92.40
2019-03-24T03:06:49.667Z,92.40
2019-03-24T03:09:17.648Z,92.30
2019-03-24T03:11:45.655Z,92.30
2019-03-24T03:14:13.685Z,92.30
2019-03-24T03:16:41.719Z,92.30
2019-03-24T03:19:09.751Z,92.30
2019-03-24T03:21:37.767Z,92.20
2019-03-24T03:24:05.800Z,92.30
2019-03-24T03:26:33.862Z,92.30
2019-03-24T03:29:01.905Z,92.20
2019-03-24T03:31:29.906Z,92.30
2019-03-24T03:33:57.940Z,92.20
2019-03-24T03:36:25.955Z,92.20
2019-03-24T03:38:54.026Z,92.20
2019-03-24T03:41:22.027Z,92.00
2019-03-24T03:43:50.042Z,92.10
2019-03-24T03:46:18.072Z,92.30
2019-03-24T03:48:46.120Z,92.40
2019-03-24T03:51:14.113Z,92.50
2019-03-24T03:53:42.838Z,92.50
2019-03-24T03:56:10.839Z,92.70
2019-03-24T03:58:38.877Z,92.80
2019-03-24T04:01:07.903Z,92.80
2019-03-24T04:03:35.942Z,92.90
2019-03-24T04:06:03.961Z,93.00
2019-03-24T04:08:32.046Z,93.00
2019-03-24T04:11:00.045Z,93.10
2019-03-24T04:13:28.043Z,93.00
2019-03-24T04:15:56.372Z,92.90
2019-03-24T04:18:24.434Z,92.90
2019-03-24T04:20:53.038Z,92.80
2019-03-24T04:23:21.035Z,93.00
2019-03-24T04:25:49.073Z,93.30
2019-03-24T04:28:17.512Z,93.40
2019-03-24T04:30:46.060Z,93.30
2019-03-24T04:33:14.064Z,93.20
2019-03-24T04:35:42.153Z,93.30
2019-03-24T04:38:10.566Z,93.30
2019-03-24T04:40:38.621Z,93.30
2019-03-24T04:43:06.627Z,93.10
2019-03-24T04:45:34.679Z,93.20
2019-03-24T04:48:02.733Z,93.30
2019-03-24T04:50:30.777Z,93.30
2019-03-24T04:52:59.856Z,93.40
2019-03-24T04:55:27.896Z,93.50
2019-03-24T04:57:55.928Z,93.50
2019-03-24T05:00:42.353Z,93.50
2019-03-24T05:03:10.382Z,93.60
2019-03-24T05:05:39.290Z,93.70
2019-03-24T05:08:09.208Z,93.70
2019-03-24T05:10:37.249Z,93.80
2019-03-24T05:13:05.320Z,93.70
2019-03-24T05:15:33.385Z,93.70
2019-03-24T05:18:01.413Z,93.70
2019-03-24T05:20:29.517Z,93.60
2019-03-24T05:22:57.533Z,93.40
2019-03-24T05:25:26.109Z,93.50
2019-03-24T05:27:54.151Z,93.90
2019-03-24T05:30:22.294Z,93.40
2019-03-24T05:32:50.351Z,93.40
2019-03-24T05:35:20.195Z,93.30
2019-03-24T05:37:48.523Z,93.40
2019-03-24T05:40:16.573Z,93.50
2019-03-24T05:42:44.649Z,93.60
2019-03-24T05:45:12.832Z,93.70
2019-03-24T05:47:42.092Z,93.80
2019-03-24T05:50:29.383Z,93.80
2019-03-24T05:52:57.409Z,93.90
2019-03-24T05:55:28.584Z,94.00
2019-03-24T05:57:56.617Z,94.00
2019-03-24T06:00:24.775Z,93.80
2019-03-24T06:02:52.868Z,93.80
2019-03-24T06:05:20.944Z,93.90
2019-03-24T06:07:49.346Z,93.70
2019-03-24T06:10:17.649Z,93.80
2019-03-24T06:12:48.769Z,94.00
2019-03-24T06:15:16.901Z,93.50
2019-03-24T06:17:48.093Z,93.60
2019-03-24T06:20:15.741Z,93.50
2019-03-24T06:22:46.561Z,93.30
2019-03-24T06:25:14.982Z,93.30
2019-03-24T06:27:43.829Z,93.30
2019-03-24T06:30:19.653Z,93.40
2019-03-24T06:32:51.358Z,93.60
2019-03-24T06:35:19.748Z,93.70
2019-03-24T06:37:48.048Z,93.40
2019-03-24T06:40:16.121Z,93.00
2019-03-24T06:42:45.492Z,92.90
2019-03-24T06:45:14.801Z,92.80
2019-03-24T06:47:43.223Z,92.80
2019-03-24T06:50:11.544Z,92.60
2019-03-24T06:52:40.060Z,92.60
2019-03-24T06:55:08.577Z,92.10
2019-03-24T06:57:36.959Z,92.10
2019-03-24T07:00:06.873Z,92.50
2019-03-24T07:02:35.669Z,92.60
2019-03-24T07:05:04.310Z,92.10
2019-03-24T07:07:32.413Z,91.80
2019-03-24T07:10:00.502Z,91.60
2019-03-24T07:12:31.690Z,91.30
2019-03-24T07:14:59.783Z,91.30
2019-03-24T07:17:27.908Z,91.20
2019-03-24T07:19:55.932Z,90.20
2019-03-24T07:22:24.325Z,90.00
2019-03-24T07:24:52.532Z,89.90
2019-03-24T07:27:20.718Z,90.00
2019-03-24T07:29:48.872Z,89.00
2019-03-24T07:32:16.922Z,88.70
2019-03-24T07:34:50.936Z,86.70
2019-03-24T07:37:19.037Z,86.10
2019-03-24T07:39:47.117Z,86.20
2019-03-24T07:42:15.312Z,86.70
2019-03-24T07:44:43.407Z,89.30
2019-03-24T07:47:14.424Z,86.60
2019-03-24T07:49:42.525Z,85.90
2019-03-24T07:52:10.869Z,86.80
2019-03-24T07:54:38.924Z,86.40
2019-03-24T07:57:07.089Z,86.60
2019-03-24T07:59:35.120Z,85.80
2019-03-24T08:02:04.075Z,86.30
2019-03-24T08:04:32.154Z,86.60
2019-03-24T08:07:00.211Z,86.60
2019-03-24T08:09:28.280Z,86.90
2019-03-24T08:11:56.372Z,87.60
2019-03-24T08:14:24.602Z,85.80
2019-03-24T08:16:53.170Z,86.40
2019-03-24T08:19:21.294Z,86.20
2019-03-24T08:21:49.678Z,85.50
2019-03-24T08:24:17.796Z,85.20
2019-03-24T08:26:46.478Z,84.00
2019-03-24T08:29:14.837Z,83.20
2019-03-24T08:31:44.668Z,82.60
2019-03-24T08:34:19.812Z,82.90
2019-03-24T08:36:48.739Z,82.30
2019-03-24T08:39:17.180Z,83.70
2019-03-24T08:41:45.520Z,84.30
2019-03-24T08:44:13.969Z,83.30
2019-03-24T08:46:47.149Z,82.20
2019-03-24T08:49:40.307Z,81.10
2019-03-24T08:52:09.022Z,81.00
2019-03-24T08:54:48.297Z,80.80
2019-03-24T08:57:32.371Z,80.60
2019-03-24T09:00:06.629Z,80.10
2019-03-24T09:02:47.850Z,80.20
2019-03-24T09:05:18.959Z,79.50
2019-03-24T09:07:48.960Z,80.50
2019-03-24T09:10:17.009Z,82.30
2019-03-24T09:12:45.188Z,81.90
2019-03-24T09:15:13.694Z,82.30
2019-03-24T09:18:04.853Z,83.30
2019-03-24T09:20:41.548Z,83.00
2019-03-24T09:23:39.179Z,82.30
2019-03-24T09:26:08.649Z,80.90
2019-03-24T09:28:37.079Z,81.10
2019-03-24T09:31:07.093Z,79.80
2019-03-24T09:33:35.268Z,81.00
2019-03-24T09:36:03.497Z,79.60
2019-03-24T09:38:31.802Z,79.70
2019-03-24T09:41:02.762Z,79.40
2019-03-24T09:43:30.951Z,78.90
2019-03-24T09:45:59.094Z,78.40
2019-03-24T09:48:27.781Z,79.30
2019-03-24T09:50:55.939Z,79.00
2019-03-24T09:53:24.333Z,79.50
2019-03-24T09:55:55.313Z,78.20
2019-03-24T09:58:23.693Z,77.60
2019-03-24T10:00:51.866Z,77.90
2019-03-24T10:03:20.026Z,77.90
2019-03-24T10:05:48.321Z,77.30
2019-03-24T10:08:16.434Z,77.60
2019-03-24T10:10:44.747Z,77.00
2019-03-24T10:13:13.180Z,77.30
2019-03-24T10:15:41.341Z,76.90
2019-03-24T10:18:11.650Z,76.00
2019-03-24T10:20:39.788Z,75.00
2019-03-24T10:23:08.908Z,75.10
2019-03-24T10:25:37.139Z,75.40
2019-03-24T10:28:05.813Z,74.30
2019-03-24T10:30:38.985Z,74.30
2019-03-24T10:33:07.171Z,74.50
2019-03-24T10:35:35.879Z,74.20
2019-03-24T10:38:04.094Z,73.70
2019-03-24T10:40:32.237Z,73.50
2019-03-24T10:43:00.528Z,72.20
2019-03-24T10:45:28.666Z,73.00
2019-03-24T10:47:56.789Z,71.70
2019-03-24T10:50:25.159Z,72.30
2019-03-24T10:52:53.232Z,73.30
2019-03-24T10:55:21.462Z,73.90
2019-03-24T10:57:49.645Z,73.50
2019-03-24T11:00:42.447Z,72.90
2019-03-24T11:03:11.031Z,73.90
2019-03-24T11:05:39.560Z,75.40
2019-03-24T11:08:08.349Z,76.20
2019-03-24T11:10:39.420Z,75.00
2019-03-24T11:13:08.076Z,75.80
2019-03-24T11:15:36.529Z,74.90
2019-03-24T11:18:05.105Z,74.10
2019-03-24T11:20:33.830Z,73.20
2019-03-24T11:23:05.067Z,71.90
2019-03-24T11:25:33.235Z,70.30
2019-03-24T11:28:05.862Z,70.00
2019-03-24T11:30:34.322Z,69.80
2019-03-24T11:33:02.537Z,70.70
2019-03-24T11:35:31.373Z,70.50
2019-03-24T11:38:01.677Z,71.20
2019-03-24T11:40:30.107Z,71.20
2019-03-24T11:43:01.423Z,71.50
2019-03-24T11:45:29.864Z,72.80
2019-03-24T11:48:03.763Z,72.90
2019-03-24T11:50:32.201Z,73.60
2019-03-24T11:53:00.472Z,75.00
2019-03-24T11:55:28.625Z,75.20
2019-03-24T11:58:05.240Z,76.40
2019-03-24T12:00:38.955Z,76.50
2019-03-24T12:03:10.251Z,75.80
2019-03-24T12:05:38.411Z,75.80
2019-03-24T12:08:06.635Z,76.20
2019-03-24T12:10:35.070Z,75.10
2019-03-24T12:13:06.305Z,75.10
2019-03-24T12:15:34.520Z,74.10
2019-03-24T12:18:02.754Z,75.30
2019-03-24T12:20:30.844Z,74.40
2019-03-24T12:22:58.996Z,73.90
2019-03-24T12:25:27.350Z,74.60
2019-03-24T12:27:55.536Z,74.20
2019-03-24T12:30:23.689Z,74.40
2019-03-24T12:32:51.951Z,73.70
2019-03-24T12:35:23.163Z,74.10
2019-03-24T12:37:51.244Z,74.10
2019-03-24T12:40:19.442Z,74.20
2019-03-24T12:42:47.587Z,73.60
2019-03-24T12:45:15.790Z,73.20
2019-03-24T12:47:43.827Z,72.20
2019-03-24T12:50:13.968Z,73.90
2019-03-24T12:52:42.228Z,73.00
2019-03-24T12:55:10.472Z,72.40
2019-03-24T12:57:38.576Z,74.70
2019-03-24T13:00:08.324Z,73.40
2019-03-24T13:02:36.569Z,73.60
2019-03-24T13:05:06.675Z,72.50
2019-03-24T13:07:34.882Z,72.00
2019-03-24T13:10:03.308Z,73.30
2019-03-24T13:12:31.405Z,74.60
2019-03-24T13:14:59.566Z,73.50
2019-03-24T13:17:30.347Z,73.30
2019-03-24T13:19:58.905Z,73.00
2019-03-24T13:22:27.507Z,72.80
2019-03-24T13:24:55.644Z,73.60
2019-03-24T13:27:24.111Z,71.70
2019-03-24T13:29:52.222Z,70.90
2019-03-24T13:32:20.444Z,71.50
2019-03-24T13:34:48.638Z,71.40
2019-03-24T13:37:16.733Z,70.40
2019-03-24T13:39:44.788Z,70.70
2019-03-24T13:42:13.041Z,71.40
2019-03-24T13:44:41.158Z,71.40
2019-03-24T13:47:09.322Z,71.10
2019-03-24T13:49:37.885Z,70.70
2019-03-24T13:52:05.982Z,72.70
2019-03-24T13:54:34.075Z,73.60
2019-03-24T13:57:02.185Z,73.50
2019-03-24T13:59:30.349Z,73.90
2019-03-24T14:02:01.321Z,72.90
2019-03-24T14:04:29.512Z,72.00
2019-03-24T14:06:57.799Z,72.50
2019-03-24T14:09:26.343Z,73.80
2019-03-24T14:11:54.409Z,74.20
2019-03-24T14:14:22.524Z,74.60
2019-03-24T14:16:50.823Z,74.20
2019-03-24T14:19:18.948Z,73.80
2019-03-24T14:21:47.420Z,75.50
2019-03-24T14:24:15.509Z,75.90
2019-03-24T14:26:43.585Z,75.70
2019-03-24T14:29:12.128Z,74.10
2019-03-24T14:31:40.195Z,74.40
2019-03-24T14:34:08.359Z,73.00
2019-03-24T14:36:36.469Z,72.80
2019-03-24T14:39:05.833Z,72.90
2019-03-24T14:41:44.006Z,73.70
2019-03-24T14:44:12.361Z,73.70
2019-03-24T14:46:41.060Z,74.40
2019-03-24T14:49:09.149Z,74.10
2019-03-24T14:51:37.289Z,74.00
2019-03-24T14:54:05.413Z,74.00
2019-03-24T14:56:34.130Z,73.70
2019-03-24T14:59:02.339Z,74.50
2019-03-24T15:01:30.521Z,74.60
2019-03-24T15:03:58.978Z,74.60
2019-03-24T15:06:27.106Z,74.20
2019-03-24T15:08:55.241Z,74.80
2019-03-24T15:11:23.655Z,74.50
2019-03-24T15:14:41.272Z,74.50
2019-03-24T15:17:17.597Z,74.40
2019-03-24T15:19:45.780Z,75.40
2019-03-24T15:22:14.115Z,75.70
2019-03-24T15:24:42.200Z,76.40
2019-03-24T15:27:13.789Z,77.00
2019-03-24T15:29:42.083Z,77.00
2019-03-24T15:32:10.286Z,77.30
2019-03-24T15:34:38.821Z,77.60
2019-03-24T15:37:07.256Z,77.10
2019-03-24T15:39:35.431Z,77.50
2019-03-24T15:42:04.005Z,77.30
2019-03-24T15:44:32.214Z,77.80
2019-03-24T15:47:01.580Z,77.50
2019-03-24T15:49:31.639Z,78.10
2019-03-24T15:52:03.427Z,78.00
2019-03-24T15:54:31.869Z,77.70
2019-03-24T15:57:03.516Z,78.40
2019-03-24T15:59:38.717Z,78.40
2019-03-24T16:02:10.524Z,78.30
2019-03-24T16:04:38.683Z,78.50
2019-03-24T16:07:06.980Z,78.50
2019-03-24T16:09:35.349Z,77.70
2019-03-24T16:12:03.736Z,76.50
2019-03-24T16:14:31.982Z,77.00
2019-03-24T16:17:00.390Z,77.30
2019-03-24T16:19:28.720Z,77.80
2019-03-24T16:21:56.844Z,77.40
2019-03-24T16:24:27.216Z,78.20
2019-03-24T16:26:55.324Z,78.30
2019-03-24T16:29:25.433Z,78.40
2019-03-24T16:31:53.458Z,78.10
2019-03-24T16:34:23.283Z,78.10
2019-03-24T16:36:51.383Z,78.50
2019-03-24T16:39:19.494Z,78.50
2019-03-24T16:41:49.719Z,78.80
2019-03-24T16:44:17.855Z,78.80
2019-03-24T16:46:45.885Z,78.70
2019-03-24T16:49:14.031Z,78.40
2019-03-24T16:51:42.206Z,78.50
2019-03-24T16:54:11.353Z,78.20
2019-03-24T16:56:39.592Z,78.50
2019-03-24T16:59:07.783Z,78.80
2019-03-24T17:01:36.038Z,79.40
2019-03-24T17:04:04.172Z,80.00
2019-03-24T17:06:32.301Z,80.50
2019-03-24T17:09:00.701Z,80.60
2019-03-24T17:11:29.041Z,80.90
2019-03-24T17:13:58.960Z,81.10
2019-03-24T17:16:27.749Z,81.10
2019-03-24T17:18:55.983Z,81.60
2019-03-24T17:21:28.476Z,81.80
2019-03-24T17:23:56.710Z,82.10
2019-03-24T17:26:24.944Z,82.30
2019-03-24T17:28:53.660Z,83.20
2019-03-24T17:31:21.733Z,82.60
2019-03-24T17:33:49.982Z,82.70
2019-03-24T17:36:18.048Z,82.80
2019-03-24T17:38:46.138Z,83.00
2019-03-24T17:41:14.281Z,83.20
2019-03-24T17:43:42.418Z,83.20
2019-03-24T17:46:10.601Z,83.00
2019-03-24T17:48:38.772Z,82.90
2019-03-24T17:51:09.055Z,82.80
2019-03-24T17:53:37.810Z,82.90
2019-03-24T17:56:06.322Z,83.30
2019-03-24T17:58:34.436Z,83.30
2019-03-24T18:01:08.960Z,83.60
2019-03-24T18:03:37.124Z,83.50
2019-03-24T18:06:05.341Z,83.50
2019-03-24T18:08:33.737Z,83.50
2019-03-24T18:11:03.301Z,83.70
2019-03-24T18:13:31.618Z,84.10
2019-03-24T18:16:00.427Z,90.90
2019-03-24T18:18:40.876Z,85.00
2019-03-24T18:21:13.765Z,84.30
2019-03-24T18:23:44.666Z,83.90
2019-03-24T18:26:12.981Z,83.70
2019-03-24T18:28:41.212Z,83.60
2019-03-24T18:31:09.363Z,83.80
2019-03-24T18:33:49.993Z,83.90
2019-03-24T18:36:21.795Z,84.00
2019-03-24T18:38:50.211Z,84.00
2019-03-24T18:41:23.414Z,84.10
2019-03-24T18:43:53.247Z,84.40
2019-03-24T18:46:21.549Z,84.40
2019-03-24T18:48:50.337Z,84.60
2019-03-24T18:51:18.750Z,84.60
2019-03-24T18:53:46.874Z,84.70
2019-03-24T18:56:17.678Z,84.70
2019-03-24T18:58:46.930Z,84.80
2019-03-24T19:01:15.910Z,85.00
2019-03-24T19:03:46.495Z,85.10
2019-03-24T19:06:14.871Z,85.00
2019-03-24T19:08:43.412Z,85.50
2019-03-24T19:11:12.297Z,85.50
2019-03-24T19:13:40.935Z,85.50
2019-03-24T19:16:09.291Z,85.50
2019-03-24T19:18:44.145Z,85.40
2019-03-24T19:21:16.645Z,85.70
2019-03-24T19:23:45.097Z,86.00
2019-03-24T19:26:15.709Z,86.20
2019-03-24T19:28:46.134Z,86.20
2019-03-24T19:31:19.685Z,86.60
2019-03-24T19:33:53.154Z,86.80
2019-03-24T19:36:21.994Z,87.10
2019-03-24T19:38:50.385Z,87.00
2019-03-24T19:41:20.873Z,87.10
2019-03-24T19:43:49.257Z,87.00
2019-03-24T19:46:19.871Z,87.00
2019-03-24T19:48:48.261Z,86.90
2019-03-24T19:51:17.738Z,86.70
2019-03-24T19:53:45.789Z,86.80
2019-03-24T19:56:21.911Z,86.50
2019-03-24T19:58:53.578Z,86.90
2019-03-24T20:01:23.026Z,87.30
2019-03-24T20:03:54.138Z,87.50
2019-03-24T20:06:22.899Z,87.70
2019-03-24T20:08:53.747Z,87.90
2019-03-24T20:11:22.011Z,88.10
2019-03-24T20:13:51.997Z,88.50
2019-03-24T20:16:23.578Z,88.50
2019-03-24T20:18:55.219Z,88.40
2019-03-24T20:21:23.287Z,88.50
2019-03-24T20:23:51.373Z,88.60
2019-03-24T20:26:20.958Z,88.80
2019-03-24T20:28:50.293Z,88.70
2019-03-24T20:31:18.418Z,88.80
2019-03-24T20:33:46.468Z,88.60
2019-03-24T20:36:15.749Z,88.80
2019-03-24T20:38:47.726Z,89.00
2019-03-24T20:41:15.942Z,89.20
2019-03-24T20:43:45.557Z,89.40
2019-03-24T20:46:13.584Z,89.50
2019-03-24T20:48:46.047Z,90.10
2019-03-24T20:51:17.487Z,89.60
2019-03-24T20:53:51.601Z,89.50
2019-03-24T20:56:19.726Z,89.60
2019-03-24T20:58:47.928Z,89.70
2019-03-24T21:01:18.662Z,89.80
2019-03-24T21:03:51.501Z,90.00
2019-03-24T21:06:22.550Z,90.00
2019-03-24T21:08:53.062Z,90.10
2019-03-24T21:11:21.250Z,90.10
2019-03-24T21:13:49.403Z,90.10
2019-03-24T21:16:25.303Z,90.10
2019-03-24T21:18:52.728Z,90.10
2019-03-24T21:21:20.726Z,90.10
2019-03-24T21:23:49.396Z,90.00
2019-03-24T21:26:17.860Z,90.20
2019-03-24T21:28:45.881Z,90.30
2019-03-24T21:31:13.916Z,90.20
2019-03-24T21:33:42.291Z,90.30
2019-03-24T21:36:10.489Z,90.50
2019-03-24T21:38:38.562Z,90.60
2019-03-24T21:41:06.612Z,90.70
2019-03-24T21:43:34.736Z,90.70
2019-03-24T21:46:02.918Z,90.60
2019-03-24T21:48:31.148Z,90.70
2019-03-24T21:51:00.648Z,90.70
2019-03-24T21:53:40.361Z,90.80
2019-03-24T21:56:01.499Z,90.80
2019-03-24T21:58:36.444Z,91.10
2019-03-24T22:01:04.478Z,91.30
2019-03-24T22:03:32.523Z,91.50
2019-03-24T22:06:02.614Z,91.60
2019-03-24T22:08:30.682Z,91.50
2019-03-24T22:10:58.837Z,91.80
2019-03-24T22:13:26.976Z,91.80
2019-03-24T22:15:54.976Z,91.70
2019-03-24T22:18:22.997Z,91.70
2019-03-24T22:20:51.014Z,91.60
2019-03-24T22:23:19.045Z,91.40
2019-03-24T22:25:47.075Z,91.00
2019-03-24T22:28:15.100Z,91.20
2019-03-24T22:30:43.104Z,91.30
2019-03-24T22:33:11.208Z,91.40
2019-03-24T22:35:39.208Z,91.30
2019-03-24T22:38:07.313Z,91.20
2019-03-24T22:40:35.268Z,91.20
2019-03-24T22:43:03.477Z,91.00
2019-03-24T22:45:31.575Z,91.10
2019-03-24T22:47:59.685Z,91.20
2019-03-24T22:50:28.064Z,91.40
2019-03-24T22:52:56.095Z,91.50
2019-03-24T22:55:24.112Z,91.60
2019-03-24T22:57:52.189Z,91.40
2019-03-24T23:00:41.976Z,91.40
2019-03-24T23:03:10.184Z,91.50
2019-03-24T23:05:38.183Z,91.50
2019-03-24T23:08:06.224Z,91.50
2019-03-24T23:10:34.237Z,91.40
2019-03-24T23:13:02.424Z,91.30
2019-03-24T23:15:30.608Z,91.40
2019-03-24T23:17:58.621Z,91.40
2019-03-24T23:20:26.636Z,91.40
2019-03-24T23:22:54.652Z,91.20
2019-03-24T23:25:22.696Z,91.10
2019-03-24T23:27:50.727Z,91.20
2019-03-24T23:30:19.061Z,91.40
2019-03-24T23:32:47.112Z,91.50
2019-03-24T23:35:15.427Z,91.40
2019-03-24T23:37:43.436Z,91.10
2019-03-24T23:40:11.779Z,91.50
2019-03-24T23:42:39.776Z,91.30
2019-03-24T23:45:08.311Z,91.20
2019-03-24T23:47:36.325Z,91.20
2019-03-24T23:50:05.011Z,91.20
2019-03-24T23:52:33.017Z,91.10
2019-03-24T23:55:01.129Z,90.90
2019-03-24T23:57:29.163Z,91.10
2019-03-24T23:59:57.193Z,91.10
